This is the latest recevied weather packets stored in our database for station/object SP3WRO-13. If no packets are shown the sender has not sent any weather packets the latest 1 day(s).
| Time | Temp. | Humidity | Pressure | Rain* | Wind** | Luminosity | Snow |
|---|---|---|---|---|---|---|---|
| 1778011195 | 11.11° C | 94% | 1004.7 hPa | - | 0 m/s | - | - |
| 1778010295 | 11.67° C | 94% | 1004.6 hPa | - | 0 m/s | - | - |
| 1778009395 | 11.67° C | 94% | 1004.6 hPa | - | 0 m/s | - | - |
| 1778008495 | 11.67° C | 93% | 1004.6 hPa | - | 0 m/s | - | - |
| 1778007595 | 12.22° C | 93% | 1004.8 hPa | - | 0.45 m/s, 350° | - | - |
| 1778006695 | 12.22° C | 92% | 1004.9 hPa | - | 0.45 m/s, 84° | - | - |
| 1778005795 | 12.22° C | 92% | 1004.9 hPa | - | 0.45 m/s, 28° | 1 W/m² | - |
| 1778004895 | 12.78° C | 92% | 1004.8 hPa | - | 0 m/s | 5 W/m² | - |
| 1778003995 | 12.78° C | 91% | 1004.7 hPa | - | 0.45 m/s, 60° | 10 W/m² | - |
| 1778003095 | 13.33° C | 90% | 1004.6 hPa | - | 0 m/s | 21 W/m² | - |
| 1778002194 | 13.33° C | 89% | 1004.6 hPa | - | 0.45 m/s, 11° | 33 W/m² | - |
| 1778001294 | 13.33° C | 90% | 1004.5 hPa | - | 0.45 m/s, 33° | 56 W/m² | - |
| 1778000394 | 13.33° C | 89% | 1004.7 hPa | - | 0.45 m/s, 96° | 64 W/m² | - |
| 1777999494 | 13.89° C | 89% | 1004.7 hPa | - | 0.89 m/s, 324° | 92 W/m² | - |
| 1777998594 | 13.33° C | 91% | 1004.8 hPa | - | 0.45 m/s, 93° | 112 W/m² | - |
| 1777997694 | 13.33° C | 91% | 1004.7 hPa | - | 0.45 m/s, 60° | 90 W/m² | - |
| 1777996794 | 13.33° C | 91% | 1004.8 hPa | - | 0.45 m/s, 69° | 72 W/m² | - |
| 1777995894 | 13.33° C | 92% | 1004.9 hPa | - | 0.89 m/s, 27° | 74 W/m² | - |
| 1777994994 | 13.89° C | 92% | 1004.9 hPa | - | 0.45 m/s, 108° | 111 W/m² | - |
| 1777994094 | 13.33° C | 92% | 1004.8 hPa | - | 0.89 m/s, 46° | 119 W/m² | - |
| 1777993194 | 13.33° C | 92% | 1005 hPa | - | 0.89 m/s, 21° | 124 W/m² | - |
| 1777992294 | 13.33° C | 92% | 1005 hPa | - | 0.89 m/s, 66° | 138 W/m² | - |
| 1777991394 | 13.33° C | 92% | 1005.2 hPa | - | 0.45 m/s, 69° | 128 W/m² | - |
| 1777990494 | 12.78° C | 92% | 1005.3 hPa | - | 0.45 m/s, 51° | 71 W/m² | - |
| 1777989594 | 13.33° C | 91% | 1005.4 hPa | - | 0.45 m/s, 343° | 74 W/m² | - |
* Rain since midnight (hover to see other rain measurements)
** Current wind speed in m/s (hover to see current wind gust speed)